Time;durP1;ratioP1;P1;durP2;ratioP2;P2;SDS_P1;SDS_P2;PMS_P1;PMS_P2;Temp;Humidity;BMP_temperature;BMP_pressure;BME280_temperature;BME280_humidity;BME280_pressure;Samples;Min_cycle;Max_cycle;Signal;HPM_P1;HPM_P2
2023/10/22 00:00:29;;;;;;;1.10;0.70;;;3.60;99.90;;;;;;1892409;74;25229;-89
2023/10/22 00:03:18;;;;;;;0.50;0.50;;;3.60;99.90;;;;;;1878153;74;25263;-89
2023/10/22 00:08:48;;;;;;;0.53;0.53;;;3.70;99.90;;;;;;1930926;72;27312;-89
2023/10/22 00:11:37;;;;;;;0.73;0.60;;;3.70;99.90;;;;;;1885535;73;25324;-90
2023/10/22 00:14:25;;;;;;;0.60;0.50;;;3.70;99.90;;;;;;1894614;73;25681;-89
2023/10/22 00:17:14;;;;;;;1.90;0.70;;;3.70;99.90;;;;;;1891902;75;25226;-89
2023/10/22 00:20:02;;;;;;;0.70;0.70;;;3.70;99.90;;;;;;1889034;75;25338;-89
2023/10/22 00:22:51;;;;;;;0.77;0.70;;;3.80;99.90;;;;;;1846647;76;25311;-89
2023/10/22 00:25:39;;;;;;;0.60;0.60;;;3.70;99.90;;;;;;1917619;73;25150;-89
2023/10/22 00:28:28;;;;;;;0.93;0.60;;;3.70;99.90;;;;;;1915283;73;25285;-89
2023/10/22 00:31:17;;;;;;;0.73;0.60;;;3.70;99.90;;;;;;1915186;73;25231;-90
2023/10/22 00:34:06;;;;;;;0.50;0.50;;;3.70;99.90;;;;;;1869838;75;25294;-90
2023/10/22 00:36:54;;;;;;;0.37;0.37;;;3.70;99.90;;;;;;1841598;77;25302;-90
2023/10/22 00:39:43;;;;;;;0.70;0.70;;;3.70;99.90;;;;;;1895411;74;25319;-90
2023/10/22 00:42:31;;;;;;;0.40;0.40;;;3.70;99.90;;;;;;1897487;74;25190;-90
2023/10/22 00:48:00;;;;;;;0.50;0.50;;;3.70;99.90;;;;;;1939702;72;27627;-89
2023/10/22 00:50:49;;;;;;;0.60;0.60;;;3.70;99.90;;;;;;1900875;75;25295;-89
2023/10/22 00:53:38;;;;;;;0.60;0.60;;;3.70;99.90;;;;;;1859982;75;25723;-89
2023/10/22 00:56:28;;;;;;;0.33;0.33;;;3.70;99.90;;;;;;1851532;76;25253;-89
2023/10/22 00:59:17;;;;;;;0.77;0.53;;;3.70;99.90;;;;;;1869655;75;25318;-89
2023/10/22 01:02:06;;;;;;;0.60;0.40;;;3.60;99.90;;;;;;1838091;77;25196;-89
2023/10/22 01:04:55;;;;;;;0.70;0.70;;;3.60;99.90;;;;;;1841608;76;25232;-89
2023/10/22 01:07:43;;;;;;;0.60;0.60;;;3.60;99.90;;;;;;1884904;73;25306;-89
2023/10/22 01:10:32;;;;;;;0.43;0.43;;;3.60;99.90;;;;;;1909886;73;25154;-89
2023/10/22 01:13:21;;;;;;;0.47;0.47;;;3.60;99.90;;;;;;1913047;74;25202;-89
2023/10/22 01:16:10;;;;;;;0.30;0.30;;;3.60;99.90;;;;;;1864053;76;25373;-89
2023/10/22 01:21:37;;;;;;;1.10;0.40;;;3.60;99.90;;;;;;2021387;69;26807;-89
2023/10/22 01:24:26;;;;;;;0.60;0.60;;;3.60;99.90;;;;;;1966850;71;25348;-89
2023/10/22 01:29:57;;;;;;;0.40;0.40;;;3.60;99.90;;;;;;1929295;72;27021;-89
2023/10/22 01:32:46;;;;;;;0.70;0.70;;;3.60;99.90;;;;;;1908171;73;25209;-89
2023/10/22 01:35:35;;;;;;;0.40;0.40;;;3.60;99.90;;;;;;1865737;75;25329;-89
2023/10/22 01:38:23;;;;;;;0.40;0.40;;;3.60;99.90;;;;;;1814123;77;25840;-89
2023/10/22 01:41:12;;;;;;;0.60;0.60;;;3.60;99.90;;;;;;1889863;73;25288;-88
2023/10/22 01:44:00;;;;;;;0.37;0.37;;;3.60;99.90;;;;;;1864683;75;25329;-88
2023/10/22 01:46:50;;;;;;;0.60;0.60;;;3.60;99.90;;;;;;1843004;78;25311;-88
2023/10/22 01:49:39;;;;;;;0.40;0.40;;;3.60;99.90;;;;;;1806811;77;25281;-89
2023/10/22 01:52:28;;;;;;;0.30;0.30;;;3.60;99.90;;;;;;1878708;75;25711;-89
2023/10/22 01:55:17;;;;;;;0.70;0.50;;;3.60;99.90;;;;;;1889959;75;25205;-88
2023/10/22 02:00:50;;;;;;;3.70;0.60;;;3.70;99.90;;;;;;1931793;73;27057;-88
2023/10/22 02:03:40;;;;;;;0.70;0.70;;;3.70;99.90;;;;;;1916983;73;25304;-88
2023/10/22 02:09:09;;;;;;;0.60;0.60;;;3.70;99.90;;;;;;1952087;72;28188;-89
2023/10/22 02:11:58;;;;;;;0.40;0.40;;;3.70;99.90;;;;;;1895162;75;25283;-89
2023/10/22 02:14:46;;;;;;;1.30;0.73;;;3.70;99.90;;;;;;1887905;73;25301;-89
2023/10/22 02:17:35;;;;;;;0.87;0.50;;;3.80;99.90;;;;;;1884821;75;25332;-89
2023/10/22 02:20:24;;;;;;;0.60;0.60;;;3.80;99.90;;;;;;1899193;73;25296;-89
2023/10/22 02:23:12;;;;;;;0.43;0.43;;;3.80;99.90;;;;;;1908003;73;25758;-89
2023/10/22 02:26:01;;;;;;;0.60;0.53;;;3.80;99.90;;;;;;1897610;75;25388;-89
2023/10/22 02:28:50;;;;;;;0.70;0.70;;;3.80;99.90;;;;;;1887189;75;25819;-89
2023/10/22 02:31:38;;;;;;;1.93;0.50;;;3.80;99.90;;;;;;1910475;75;25783;-89
2023/10/22 02:34:27;;;;;;;0.70;0.70;;;3.80;99.90;;;;;;1904246;73;25232;-89
2023/10/22 02:37:15;;;;;;;0.50;0.50;;;3.90;99.90;;;;;;1894401;73;25314;-88
2023/10/22 02:42:42;;;;;;;0.53;0.53;;;3.80;99.90;;;;;;1903882;72;27084;-89
2023/10/22 02:48:12;;;;;;;0.60;0.60;;;3.80;99.90;;;;;;1942952;72;27159;-89
2023/10/22 02:51:04;;;;;;;0.60;0.60;;;3.90;99.90;;;;;;1906754;73;25255;-89
2023/10/22 02:53:52;;;;;;;0.67;0.67;;;3.90;99.90;;;;;;1884071;73;26021;-89
2023/10/22 02:56:40;;;;;;;0.47;0.47;;;3.90;99.90;;;;;;1908772;75;25448;-88
2023/10/22 02:59:28;;;;;;;0.40;0.40;;;3.90;99.90;;;;;;1896951;73;25281;-88
2023/10/22 03:02:19;;;;;;;0.90;0.60;;;3.90;99.90;;;;;;1889531;75;25430;-88
2023/10/22 03:05:08;;;;;;;0.50;0.50;;;3.90;99.90;;;;;;1896489;74;25164;-88
2023/10/22 03:07:57;;;;;;;0.70;0.70;;;3.90;99.90;;;;;;1897732;73;25648;-88
2023/10/22 03:10:46;;;;;;;1.03;0.67;;;3.90;99.90;;;;;;1898353;75;25299;-88
2023/10/22 03:13:34;;;;;;;0.33;0.33;;;3.90;99.90;;;;;;1895298;73;25223;-88
2023/10/22 03:16:23;;;;;;;0.70;0.70;;;3.90;99.90;;;;;;1897236;73;25759;-88
2023/10/22 03:21:52;;;;;;;0.90;0.90;;;3.90;99.90;;;;;;1936156;72;27513;-88
2023/10/22 03:24:40;;;;;;;0.83;0.63;;;3.90;99.90;;;;;;1908194;73;25291;-88
2023/10/22 03:27:31;;;;;;;0.90;0.90;;;3.90;99.90;;;;;;1898527;73;25208;-89
2023/10/22 03:30:19;;;;;;;1.00;0.90;;;4.00;99.90;;;;;;1905150;74;25215;-89
2023/10/22 03:33:07;;;;;;;1.20;0.80;;;3.90;99.90;;;;;;1912194;73;25183;-87
2023/10/22 03:35:57;;;;;;;1.10;0.70;;;3.90;99.90;;;;;;1917582;73;25155;-87
2023/10/22 03:38:46;;;;;;;2.23;1.20;;;4.00;99.90;;;;;;1904384;73;25272;-87
2023/10/22 03:41:35;;;;;;;3.57;0.70;;;4.00;99.90;;;;;;1905453;73;25257;-87
2023/10/22 03:44:23;;;;;;;0.77;0.70;;;3.90;99.90;;;;;;1890986;74;25328;-87
2023/10/22 03:49:59;;;;;;;0.77;0.53;;;4.00;99.90;;;;;;1960078;72;27529;-89
2023/10/22 03:52:47;;;;;;;1.70;0.57;;;4.00;99.90;;;;;;1927945;73;26383;-87
2023/10/22 03:55:36;;;;;;;3.60;1.00;;;4.00;99.90;;;;;;1933677;73;25763;-87
2023/10/22 03:58:25;;;;;;;1.10;0.70;;;4.00;99.90;;;;;;1920098;73;25225;-88
2023/10/22 04:01:14;;;;;;;2.50;1.30;;;4.00;99.90;;;;;;1928290;73;25241;-87
2023/10/22 04:04:02;;;;;;;2.20;1.10;;;4.00;99.90;;;;;;1929488;73;25279;-88
2023/10/22 04:06:51;;;;;;;2.23;0.80;;;4.00;99.90;;;;;;1919399;73;25691;-87
2023/10/22 04:09:40;;;;;;;0.67;0.67;;;4.00;99.90;;;;;;1922318;73;25239;-88
2023/10/22 04:12:30;;;;;;;0.53;0.53;;;4.00;99.90;;;;;;1930953;73;25240;-87
2023/10/22 04:15:19;;;;;;;0.60;0.60;;;4.00;99.90;;;;;;1938653;73;25239;-87
2023/10/22 04:18:07;;;;;;;1.03;1.00;;;4.00;99.90;;;;;;1925966;73;25354;-87
2023/10/22 04:20:56;;;;;;;0.53;0.53;;;4.00;99.90;;;;;;1926548;73;25223;-87
2023/10/22 04:23:46;;;;;;;1.07;1.07;;;4.00;99.90;;;;;;1932884;73;25264;-87
2023/10/22 04:26:34;;;;;;;1.17;0.90;;;4.00;99.90;;;;;;1915578;73;25200;-88
2023/10/22 04:29:23;;;;;;;2.93;0.93;;;4.00;99.90;;;;;;1929778;73;25173;-88
2023/10/22 04:32:11;;;;;;;1.03;1.03;;;4.00;99.90;;;;;;1942245;73;25221;-87
2023/10/22 04:35:00;;;;;;;2.03;1.20;;;4.00;99.90;;;;;;1927218;73;25298;-87
2023/10/22 04:40:31;;;;;;;0.70;0.70;;;4.00;99.90;;;;;;1926227;72;27006;-89
2023/10/22 04:43:21;;;;;;;0.70;0.70;;;4.10;99.90;;;;;;1888707;75;25867;-88
2023/10/22 04:46:09;;;;;;;0.70;0.70;;;4.00;99.90;;;;;;1874989;76;25313;-89
2023/10/22 04:51:40;;;;;;;0.93;0.93;;;4.00;99.90;;;;;;1934220;72;27572;-88
2023/10/22 04:54:30;;;;;;;0.53;0.40;;;4.00;99.90;;;;;;1941106;73;25284;-88
2023/10/22 04:57:18;;;;;;;2.00;1.00;;;4.00;99.90;;;;;;1932048;73;25202;-88
2023/10/22 05:00:09;;;;;;;3.03;1.17;;;4.00;99.90;;;;;;1944843;73;25646;-88
2023/10/22 05:02:59;;;;;;;0.90;0.90;;;4.10;99.90;;;;;;1929882;73;25240;-89
2023/10/22 05:05:47;;;;;;;0.93;0.90;;;4.10;99.90;;;;;;1937983;73;25587;-88
2023/10/22 05:08:36;;;;;;;2.87;1.03;;;4.10;99.90;;;;;;1935292;73;25742;-88
2023/10/22 05:11:26;;;;;;;1.10;0.90;;;4.10;99.90;;;;;;1927046;73;25170;-88
2023/10/22 05:14:15;;;;;;;0.97;0.87;;;4.10;99.90;;;;;;1932058;73;25921;-88
2023/10/22 05:17:05;;;;;;;2.30;0.80;;;4.10;99.90;;;;;;1939455;73;25228;-89
2023/10/22 05:22:37;;;;;;;1.20;0.73;;;4.10;99.90;;;;;;1946685;72;27806;-88
2023/10/22 05:25:26;;;;;;;1.40;1.10;;;4.10;99.90;;;;;;1860484;75;25247;-88
2023/10/22 05:28:14;;;;;;;0.80;0.80;;;4.10;99.90;;;;;;1914335;73;25287;-89
2023/10/22 05:31:03;;;;;;;1.10;1.10;;;4.20;99.90;;;;;;1913925;73;25280;-88
2023/10/22 05:33:52;;;;;;;0.70;0.70;;;4.20;99.90;;;;;;1918633;73;25204;-89
2023/10/22 05:36:42;;;;;;;1.07;1.03;;;4.10;99.90;;;;;;1907938;73;25168;-88
2023/10/22 05:39:30;;;;;;;3.83;1.13;;;4.20;99.90;;;;;;1895374;74;25244;-88
2023/10/22 05:42:18;;;;;;;1.00;1.00;;;4.20;99.90;;;;;;1901432;74;25207;-89
2023/10/22 05:45:09;;;;;;;1.37;1.27;;;4.20;99.90;;;;;;1880658;75;25236;-88
2023/10/22 05:47:57;;;;;;;3.33;0.90;;;4.20;99.90;;;;;;1882571;75;25236;-88
2023/10/22 05:50:46;;;;;;;0.67;0.67;;;4.20;99.90;;;;;;1887707;75;25670;-88
2023/10/22 05:53:35;;;;;;;1.93;0.83;;;4.20;99.90;;;;;;1883016;75;25221;-88
2023/10/22 05:56:24;;;;;;;1.23;0.90;;;4.20;99.90;;;;;;1891237;75;25681;-89
2023/10/22 05:59:13;;;;;;;2.00;1.20;;;4.20;99.90;;;;;;1887735;75;25207;-89
2023/10/22 06:02:02;;;;;;;0.87;0.87;;;4.20;99.90;;;;;;1883968;75;25382;-89
2023/10/22 06:04:51;;;;;;;2.13;0.73;;;4.20;99.90;;;;;;1884613;75;25644;-89
2023/10/22 06:07:40;;;;;;;0.60;0.60;;;4.20;99.90;;;;;;1894287;75;25233;-89
2023/10/22 06:10:28;;;;;;;0.83;0.83;;;4.20;99.90;;;;;;1871402;75;25250;-89
2023/10/22 06:13:16;;;;;;;0.87;0.87;;;4.10;99.90;;;;;;1872244;75;25193;-87
2023/10/22 06:18:46;;;;;;;0.90;0.90;;;4.20;99.90;;;;;;1932628;72;27159;-89
2023/10/22 06:21:35;;;;;;;1.10;1.10;;;4.10;99.90;;;;;;1898523;75;25277;-89
2023/10/22 06:24:24;;;;;;;2.03;1.20;;;4.10;99.90;;;;;;1901714;75;26406;-89
2023/10/22 06:27:12;;;;;;;1.27;0.90;;;4.20;99.90;;;;;;1890611;75;25295;-89
2023/10/22 06:30:01;;;;;;;1.83;1.00;;;4.20;99.90;;;;;;1895902;75;25622;-89
2023/10/22 06:32:51;;;;;;;0.70;0.67;;;4.20;99.90;;;;;;1898121;75;25720;-89
2023/10/22 06:35:39;;;;;;;1.33;1.07;;;4.20;99.90;;;;;;1899683;75;25849;-89
2023/10/22 06:38:28;;;;;;;1.53;1.10;;;4.20;99.90;;;;;;1907170;75;25372;-88
2023/10/22 06:41:17;;;;;;;0.83;0.83;;;4.20;99.90;;;;;;1898843;73;25250;-89
2023/10/22 06:46:51;;;;;;;0.90;0.90;;;4.20;99.90;;;;;;2027281;69;26986;-89
2023/10/22 06:49:40;;;;;;;1.03;0.97;;;4.20;99.90;;;;;;2004722;71;25348;-89
2023/10/22 06:55:09;;;;;;;0.97;0.97;;;4.30;99.90;;;;;;1934496;72;27478;-89
2023/10/22 07:00:42;;;;;;;2.80;1.03;;;4.30;99.90;;;;;;1933775;72;26994;-89
2023/10/22 07:03:31;;;;;;;1.20;1.10;;;4.30;99.90;;;;;;1874464;75;25218;-89
2023/10/22 07:06:20;;;;;;;0.73;0.73;;;4.30;99.90;;;;;;1876118;75;25680;-89
2023/10/22 07:09:09;;;;;;;1.30;1.20;;;4.30;99.90;;;;;;1884612;75;25294;-89
2023/10/22 07:11:58;;;;;;;0.43;0.43;;;4.30;99.90;;;;;;1877348;74;25163;-89
2023/10/22 07:14:46;;;;;;;1.80;0.97;;;4.40;99.90;;;;;;1888756;75;25184;-89
2023/10/22 07:17:35;;;;;;;1.00;1.00;;;4.40;99.90;;;;;;1895009;74;25669;-89
2023/10/22 07:20:24;;;;;;;0.80;0.80;;;4.40;99.90;;;;;;1888967;75;25159;-89
2023/10/22 07:23:13;;;;;;;0.90;0.77;;;4.40;99.90;;;;;;1894622;74;25162;-89
2023/10/22 07:26:02;;;;;;;1.10;1.00;;;4.40;99.90;;;;;;1881497;75;25265;-89
2023/10/22 07:28:52;;;;;;;0.90;0.70;;;4.40;99.90;;;;;;1887144;75;25155;-89
2023/10/22 07:31:42;;;;;;;0.87;0.87;;;4.40;99.90;;;;;;1889196;75;25256;-89
2023/10/22 07:34:30;;;;;;;0.80;0.70;;;4.40;99.90;;;;;;1889992;74;25259;-89
2023/10/22 07:40:06;;;;;;;0.67;0.67;;;4.50;99.90;;;;;;1968034;71;27105;-89
2023/10/22 07:42:55;;;;;;;1.43;0.80;;;4.50;99.90;;;;;;1937250;72;25263;-89
2023/10/22 07:45:43;;;;;;;0.70;0.70;;;4.50;99.90;;;;;;1926324;74;25673;-89
2023/10/22 07:48:32;;;;;;;1.23;0.90;;;4.60;99.90;;;;;;1923947;74;25244;-88
2023/10/22 07:51:24;;;;;;;1.10;1.00;;;4.60;99.90;;;;;;1922524;74;25251;-88
2023/10/22 07:54:12;;;;;;;1.87;1.10;;;4.60;99.90;;;;;;1912366;72;25371;-88
2023/10/22 07:57:00;;;;;;;1.13;0.97;;;4.60;99.90;;;;;;1925352;73;25240;-87
2023/10/22 08:02:35;;;;;;;1.03;0.70;;;4.70;99.90;;;;;;1930721;72;26994;-89
2023/10/22 08:05:23;;;;;;;1.47;0.80;;;4.70;99.90;;;;;;1916230;75;25158;-89
2023/10/22 08:08:12;;;;;;;0.67;0.63;;;4.70;99.90;;;;;;1919185;73;25253;-89
2023/10/22 08:11:02;;;;;;;1.50;0.70;;;4.70;99.90;;;;;;1919000;73;25203;-87
2023/10/22 08:13:51;;;;;;;0.60;0.60;;;4.70;99.90;;;;;;1931753;73;25260;-89
2023/10/22 08:16:40;;;;;;;0.63;0.63;;;4.70;99.90;;;;;;1935030;73;25661;-89
2023/10/22 08:22:14;;;;;;;0.43;0.43;;;4.70;99.90;;;;;;2040500;69;27074;-89
2023/10/22 08:25:03;;;;;;;3.30;0.73;;;4.70;99.90;;;;;;2014654;71;25722;-89
2023/10/22 08:27:52;;;;;;;0.67;0.53;;;4.70;99.90;;;;;;1994818;71;25225;-89
2023/10/22 08:30:42;;;;;;;2.43;1.20;;;4.80;99.90;;;;;;1996732;71;25326;-89
2023/10/22 08:33:31;;;;;;;1.63;0.80;;;4.80;99.90;;;;;;1990724;71;25224;-88
2023/10/22 08:36:20;;;;;;;1.10;0.67;;;4.90;99.90;;;;;;2012442;71;25256;-87
2023/10/22 08:39:10;;;;;;;1.13;0.80;;;4.80;99.90;;;;;;2006949;71;26124;-88
2023/10/22 08:42:02;;;;;;;1.60;1.07;;;4.90;99.90;;;;;;1985481;71;25605;-88
2023/10/22 08:47:33;;;;;;;0.70;0.70;;;4.90;99.90;;;;;;1947703;72;27150;-89
2023/10/22 08:50:22;;;;;;;0.40;0.40;;;5.00;99.90;;;;;;1935917;73;25821;-87
2023/10/22 08:53:13;;;;;;;0.80;0.80;;;5.00;99.90;;;;;;1924557;73;25311;-89
2023/10/22 08:56:02;;;;;;;0.70;0.70;;;5.00;99.90;;;;;;1925766;73;26026;-89
2023/10/22 08:58:51;;;;;;;0.80;0.80;;;5.10;99.90;;;;;;1925699;73;25407;-88
2023/10/22 09:04:19;;;;;;;0.80;0.80;;;5.10;99.90;;;;;;1920207;72;27104;-87
2023/10/22 09:07:08;;;;;;;0.67;0.67;;;5.10;99.90;;;;;;1901469;74;25212;-89
2023/10/22 16:19:13;;;;;;;8.00;3.87;;;5.60;99.90;;;;;;1932357;72;27087;-91
2023/10/22 16:22:05;;;;;;;8.27;4.00;;;5.50;99.90;;;;;;1913734;75;25161;-93
2023/10/22 16:24:54;;;;;;;8.13;4.00;;;5.50;99.90;;;;;;1868370;75;25214;-93
2023/10/22 16:27:42;;;;;;;7.73;3.83;;;5.50;99.90;;;;;;1832423;76;25162;-93
2023/10/22 16:30:49;;;;;;;5.13;3.17;;;5.40;99.90;;;;;;1860002;76;25322;-93
2023/10/22 16:34:12;;;;;;;65.73;15.57;;;5.40;99.90;;;;;;1836938;77;25229;-93
2023/10/22 16:37:01;;;;;;;7.63;3.30;;;5.50;99.90;;;;;;1899897;74;25151;-91
2023/10/22 16:39:53;;;;;;;11.87;5.23;;;5.50;99.90;;;;;;1862055;76;25165;-91
2023/10/22 17:09:49;;;;;;;12.83;5.27;;;5.60;99.90;;;;;;1943491;72;27101;-93
2023/10/22 17:13:06;;;;;;;10.37;5.63;;;5.60;99.90;;;;;;1924999;73;25193;-93
2023/10/22 17:16:33;;;;;;;6.30;4.03;;;5.60;99.90;;;;;;1942601;73;25247;-93
2023/10/22 17:19:32;;;;;;;8.10;5.40;;;5.60;99.90;;;;;;1899574;73;25764;-93
2023/10/22 17:29:20;;;;;;;11.33;6.33;;;5.60;99.90;;;;;;1935886;73;25291;-91
2023/10/22 17:32:36;;;;;;;10.90;6.10;;;5.70;99.90;;;;;;1935439;73;25166;-93
2023/10/22 17:35:45;;;;;;;7.90;5.33;;;5.70;99.90;;;;;;1914317;73;25763;-91
2023/10/22 17:38:35;;;;;;;8.77;5.30;;;5.70;99.90;;;;;;1933134;73;25192;-93
2023/10/22 17:45:33;;;;;;;8.67;5.27;;;5.70;99.90;;;;;;1912083;73;25232;-93
2023/10/22 18:18:56;;;;;;;4.43;3.23;;;5.80;99.90;;;;;;1876412;74;26860;-93
2023/10/22 19:24:30;;;;;;;8.07;3.93;;;6.00;99.90;;;;;;1869218;75;27077;-91
2023/10/22 19:30:06;;;;;;;6.13;3.23;;;6.00;99.90;;;;;;1953589;72;27147;-91
2023/10/22 19:32:57;;;;;;;7.33;3.37;;;6.00;99.90;;;;;;1933098;73;25345;-91
2023/10/22 19:36:05;;;;;;;5.77;3.27;;;6.00;99.90;;;;;;1920432;73;25221;-90
2023/10/22 19:38:54;;;;;;;5.73;2.77;;;6.00;99.90;;;;;;1926749;73;25299;-90
2023/10/22 19:41:46;;;;;;;5.70;3.93;;;6.00;99.90;;;;;;1926330;73;25392;-93
2023/10/22 20:14:56;;;;;;;9.30;6.40;;;6.00;99.90;;;;;;1922707;74;27366;-91
2023/10/22 22:44:36;;;;;;;3.03;2.30;;;5.70;99.90;;;;;;1841895;74;25228;-94
2023/10/22 23:14:04;;;;;;;5.23;2.90;;;5.70;99.90;;;;;;1875205;74;26886;-92
